Time;durP1;ratioP1;P1;durP2;ratioP2;P2;SDS_P1;SDS_P2;PMS_P1;PMS_P2;Temp;Humidity;BMP_temperature;BMP_pressure;BME280_temperature;BME280_humidity;BME280_pressure;Samples;Min_cycle;Max_cycle;Signal;HPM_P1;HPM_P2
2024/03/08 00:02:10;;;;;;;95.20;46.63;;;1.00;99.90;;;;;;5092118;28;20051;-86
2024/03/08 00:04:58;;;;;;;96.25;44.63;;;1.00;99.90;;;;;;5101877;28;20098;-83
2024/03/08 00:07:46;;;;;;;97.15;46.60;;;1.00;1.00;;;;;;5089372;28;20047;-81
2024/03/08 00:10:34;;;;;;;100.65;46.80;;;1.00;84.70;;;;;;5105499;28;20036;-84
2024/03/08 00:13:22;;;;;;;95.53;45.75;;;0.90;99.90;;;;;;5085187;28;20040;-83
2024/03/08 00:16:11;;;;;;;95.80;45.20;;;0.90;99.90;;;;;;5096022;28;20059;-84
2024/03/08 00:18:58;;;;;;;97.88;46.70;;;0.90;1.00;;;;;;5089883;28;20047;-85
2024/03/08 00:21:46;;;;;;;97.72;46.30;;;0.90;1.00;;;;;;5107829;28;20109;-82
2024/03/08 00:24:34;;;;;;;98.88;46.80;;;0.80;52.70;;;;;;5102676;27;20019;-77
2024/03/08 00:27:23;;;;;;;95.82;45.53;;;0.90;99.90;;;;;;5119914;27;20039;-76
2024/03/08 00:30:12;;;;;;;97.65;44.38;;;0.80;99.90;;;;;;5113421;28;20061;-81
2024/03/08 00:33:01;;;;;;;98.32;46.17;;;0.80;99.90;;;;;;5096552;28;20051;-81
2024/03/08 00:35:49;;;;;;;95.63;45.67;;;0.60;63.90;;;;;;5094579;28;20152;-79
2024/03/08 00:38:39;;;;;;;97.47;44.30;;;0.50;99.90;;;;;;5116890;27;20553;-81
2024/03/08 00:41:27;;;;;;;92.53;44.45;;;0.40;99.90;;;;;;5103281;28;20040;-81
2024/03/08 00:44:14;;;;;;;93.72;44.40;;;0.30;1.00;;;;;;5109820;28;20603;-87
2024/03/08 00:47:03;;;;;;;96.68;44.13;;;0.30;99.90;;;;;;5097943;28;20608;-83
2024/03/08 00:49:51;;;;;;;103.80;47.28;;;0.20;1.00;;;;;;5102027;28;20050;-80
2024/03/08 00:52:38;;;;;;;101.13;45.33;;;0.20;99.90;;;;;;5097207;28;20052;-83
2024/03/08 00:55:26;;;;;;;105.40;46.58;;;0.10;99.90;;;;;;5105674;27;20565;-84
2024/03/08 00:58:17;;;;;;;103.75;47.13;;;0.10;99.90;;;;;;5084591;28;20054;-85
2024/03/08 01:01:05;;;;;;;97.80;47.75;;;0.10;1.00;;;;;;5102435;28;20043;-84
2024/03/08 01:03:52;;;;;;;106.38;49.28;;;0.00;99.90;;;;;;5108300;28;20556;-75
2024/03/08 01:06:40;;;;;;;103.68;48.42;;;0.10;99.90;;;;;;5108463;28;20134;-85
2024/03/08 01:09:27;;;;;;;107.97;47.28;;;0.20;1.00;;;;;;5094844;27;20051;-84
2024/03/08 01:12:15;;;;;;;111.05;49.20;;;0.20;1.00;;;;;;5113635;28;20472;-85
2024/03/08 01:15:05;;;;;;;113.85;48.08;;;0.20;1.00;;;;;;5110451;28;20044;-86
2024/03/08 01:17:54;;;;;;;116.63;48.88;;;0.20;1.00;;;;;;5097486;27;20057;-82
2024/03/08 01:20:41;;;;;;;112.55;48.90;;;0.30;1.00;;;;;;5088276;28;20086;-84
2024/03/08 01:23:29;;;;;;;118.50;49.75;;;0.30;1.00;;;;;;5091197;28;20435;-82
2024/03/08 01:26:16;;;;;;;110.93;48.90;;;0.30;1.00;;;;;;5103354;28;20044;-83
2024/03/08 01:29:04;;;;;;;117.50;50.63;;;0.40;4.70;;;;;;5077302;28;20035;-84
2024/03/08 01:31:53;;;;;;;111.45;50.33;;;0.30;1.00;;;;;;5101399;28;20066;-85
2024/03/08 01:34:42;;;;;;;118.90;49.85;;;0.30;1.00;;;;;;5084095;28;20372;-85
2024/03/08 01:37:29;;;;;;;113.78;50.63;;;0.30;1.00;;;;;;5102851;28;20040;-83
2024/03/08 01:40:18;;;;;;;113.60;50.00;;;0.20;1.00;;;;;;5102034;28;20036;-79
2024/03/08 01:43:35;;;;;;;117.30;49.78;;;0.20;1.00;;;;;;5088474;28;20107;-85
2024/03/08 01:46:28;;;;;;;107.85;48.05;;;0.20;17.80;;;;;;5095417;28;20050;-83
2024/03/08 01:49:18;;;;;;;115.50;49.20;;;0.20;14.00;;;;;;5093148;28;20039;-85
2024/03/08 01:52:05;;;;;;;116.80;49.53;;;0.20;15.40;;;;;;5081391;28;20044;-83
2024/03/08 01:54:55;;;;;;;115.15;47.70;;;0.20;1.00;;;;;;5088788;28;20048;-83
2024/03/08 01:57:43;;;;;;;114.35;48.88;;;0.10;1.00;;;;;;5099456;28;20040;-82
2024/03/08 02:00:33;;;;;;;115.43;47.25;;;0.00;5.10;;;;;;5114933;28;20036;-83
2024/03/08 02:03:22;;;;;;;118.72;47.85;;;0.00;15.80;;;;;;5100050;28;20579;-82
2024/03/08 02:06:14;;;;;;;115.20;49.40;;;0.00;58.40;;;;;;5094420;28;20642;-84
2024/03/08 02:09:05;;;;;;;112.05;47.83;;;0.00;80.10;;;;;;5101249;28;20043;-82
2024/03/08 02:11:54;;;;;;;115.28;48.60;;;0.00;98.60;;;;;;5092741;28;20043;-83
2024/03/08 02:14:44;;;;;;;118.22;49.30;;;0.00;98.10;;;;;;5106800;28;20050;-81
2024/03/08 02:17:31;;;;;;;112.53;49.25;;;-0.10;90.60;;;;;;5117539;28;20028;-79
2024/03/08 02:20:20;;;;;;;111.03;47.85;;;-0.20;99.90;;;;;;5121854;28;20039;-78
2024/03/08 02:23:09;;;;;;;106.88;48.20;;;-0.20;99.90;;;;;;5109393;28;20055;-85
2024/03/08 02:25:58;;;;;;;113.90;47.78;;;-0.20;99.90;;;;;;5091800;28;20456;-81
2024/03/08 02:28:46;;;;;;;119.97;49.53;;;-0.20;99.90;;;;;;5101466;28;20063;-84
2024/03/08 02:31:33;;;;;;;120.03;47.95;;;-0.20;99.90;;;;;;5095016;28;20039;-82
2024/03/08 02:34:22;;;;;;;121.80;49.75;;;-0.20;99.90;;;;;;5059413;27;1591816;-85
2024/03/08 02:37:11;;;;;;;118.43;48.80;;;-0.20;99.90;;;;;;5107820;27;20059;-84
2024/03/08 02:39:58;;;;;;;122.25;48.45;;;-0.20;99.90;;;;;;5102063;28;20059;-83
2024/03/08 02:42:47;;;;;;;115.40;48.38;;;-0.20;99.90;;;;;;5103233;28;20483;-83
2024/03/08 02:45:35;;;;;;;117.68;48.70;;;-0.30;99.90;;;;;;5105271;28;20538;-84
2024/03/08 02:48:23;;;;;;;110.60;47.38;;;-0.30;99.90;;;;;;5084705;28;20124;-78
2024/03/08 02:51:11;;;;;;;120.93;50.05;;;-0.30;99.90;;;;;;5099240;28;20061;-85
2024/03/08 02:53:59;;;;;;;119.88;50.22;;;-0.30;99.90;;;;;;5096872;28;20058;-84
2024/03/08 02:56:47;;;;;;;115.35;49.35;;;-0.40;99.90;;;;;;5112068;27;20699;-84
2024/03/08 02:59:34;;;;;;;119.40;47.97;;;-0.50;99.90;;;;;;5101472;28;20039;-84
2024/03/08 03:02:23;;;;;;;111.45;47.75;;;-0.60;99.90;;;;;;5105238;28;20071;-83
2024/03/08 03:05:11;;;;;;;123.25;48.38;;;-0.70;99.90;;;;;;5103575;28;20048;-81
2024/03/08 03:07:59;;;;;;;121.78;47.50;;;-0.70;99.90;;;;;;5098933;27;20044;-81
2024/03/08 03:10:46;;;;;;;116.18;49.00;;;-0.80;99.90;;;;;;5104088;28;20170;-86
2024/03/08 03:13:34;;;;;;;116.05;48.17;;;-0.80;99.90;;;;;;5087399;28;20560;-84
2024/03/08 03:16:21;;;;;;;125.38;49.05;;;-0.80;99.90;;;;;;5113789;28;20051;-78
2024/03/08 03:19:09;;;;;;;121.25;48.38;;;-0.70;99.90;;;;;;5102532;28;20211;-85
2024/03/08 03:21:56;;;;;;;126.10;48.17;;;-0.70;99.90;;;;;;5112906;27;20040;-83
2024/03/08 03:24:46;;;;;;;119.80;48.25;;;-0.70;99.90;;;;;;5102780;28;20047;-83
2024/03/08 03:27:33;;;;;;;120.05;48.67;;;-0.80;99.90;;;;;;5107458;28;20092;-78
2024/03/08 03:30:21;;;;;;;107.43;46.08;;;-0.70;99.90;;;;;;5091935;28;20046;-85
2024/03/08 03:33:09;;;;;;;122.97;48.40;;;-0.80;99.90;;;;;;5113726;28;20050;-82
2024/03/08 03:35:58;;;;;;;121.95;48.22;;;-0.80;99.90;;;;;;5104413;28;20059;-81
2024/03/08 03:38:45;;;;;;;132.63;51.25;;;-0.90;99.90;;;;;;5109187;27;20067;-84
2024/03/08 03:41:34;;;;;;;124.03;48.22;;;-0.90;99.90;;;;;;5098228;28;20146;-83
2024/03/08 03:44:23;;;;;;;110.50;48.30;;;-1.00;99.90;;;;;;5101658;28;20066;-84
2024/03/08 03:47:11;;;;;;;119.93;47.10;;;-1.10;99.90;;;;;;5105929;27;20058;-85
2024/03/08 03:50:01;;;;;;;122.15;47.20;;;-1.20;99.90;;;;;;5102691;27;20040;-82
2024/03/08 03:52:49;;;;;;;123.47;48.45;;;-1.30;99.90;;;;;;5104571;27;20624;-82
2024/03/08 03:55:38;;;;;;;120.78;48.03;;;-1.20;99.90;;;;;;5099458;28;20688;-82
2024/03/08 03:58:28;;;;;;;116.82;46.58;;;-1.20;99.90;;;;;;5092382;28;20042;-79
2024/03/08 04:01:15;;;;;;;117.68;48.08;;;-1.20;99.90;;;;;;5088176;28;20100;-85
2024/03/08 04:04:02;;;;;;;116.05;47.90;;;-1.20;99.90;;;;;;5099652;28;20043;-82
2024/03/08 04:06:51;;;;;;;123.80;50.08;;;-1.10;99.90;;;;;;5094270;28;20636;-79
2024/03/08 04:09:39;;;;;;;126.97;48.00;;;-1.00;99.90;;;;;;5090894;28;20075;-84
2024/03/08 04:12:28;;;;;;;125.57;50.80;;;-1.00;99.90;;;;;;5112368;28;20053;-80
2024/03/08 04:15:16;;;;;;;124.40;48.25;;;-1.10;99.90;;;;;;5105644;28;20052;-81
2024/03/08 04:18:04;;;;;;;131.05;49.50;;;-1.20;99.90;;;;;;5121380;28;20067;-85
2024/03/08 04:20:51;;;;;;;124.35;48.55;;;-1.10;99.90;;;;;;5123769;27;20031;-77
2024/03/08 04:23:39;;;;;;;119.93;48.75;;;-1.20;99.90;;;;;;5102634;28;20300;-79
2024/03/08 04:26:27;;;;;;;124.80;48.10;;;-1.20;99.90;;;;;;5118861;28;20030;-79
2024/03/08 04:29:17;;;;;;;118.32;47.60;;;-1.20;99.90;;;;;;5115539;28;20024;-77
2024/03/08 04:32:06;;;;;;;126.60;48.13;;;-1.30;99.90;;;;;;5120696;28;20058;-80
2024/03/08 04:34:54;;;;;;;125.05;46.80;;;-1.30;99.90;;;;;;5108148;28;20043;-80
2024/03/08 04:37:41;;;;;;;125.20;48.55;;;-1.30;99.90;;;;;;5094309;28;20063;-82
2024/03/08 04:40:28;;;;;;;128.73;48.35;;;-1.30;99.90;;;;;;5094911;28;20035;-82
2024/03/08 04:43:18;;;;;;;124.57;47.45;;;-1.30;99.90;;;;;;5091935;28;20054;-82
2024/03/08 04:46:06;;;;;;;118.07;47.28;;;-1.30;99.90;;;;;;5102972;28;20042;-83
2024/03/08 04:48:53;;;;;;;124.28;48.53;;;-1.40;99.90;;;;;;5104230;28;20047;-81
2024/03/08 04:51:41;;;;;;;117.63;47.58;;;-1.50;99.90;;;;;;5087644;28;20097;-83
2024/03/08 04:54:28;;;;;;;124.47;45.97;;;-1.60;99.90;;;;;;5118048;28;20051;-82
2024/03/08 04:57:18;;;;;;;136.93;49.80;;;-1.60;99.90;;;;;;5093279;28;20413;-82
2024/03/08 05:00:10;;;;;;;124.80;49.10;;;-1.60;99.90;;;;;;5090146;28;20463;-86
2024/03/08 05:02:59;;;;;;;118.93;48.22;;;-1.60;99.90;;;;;;5103600;28;20067;-82
2024/03/08 05:05:47;;;;;;;130.95;50.17;;;-1.60;99.90;;;;;;5077956;28;20040;-80
2024/03/08 05:08:35;;;;;;;134.25;50.03;;;-1.60;99.90;;;;;;5095657;28;20108;-85
2024/03/08 05:11:22;;;;;;;138.45;49.72;;;-1.60;99.90;;;;;;5080868;28;20048;-84
2024/03/08 05:14:10;;;;;;;130.02;48.42;;;-1.60;99.90;;;;;;5103729;28;20055;-77
2024/03/08 05:16:58;;;;;;;121.18;48.25;;;-1.60;99.90;;;;;;5119766;27;20584;-82
2024/03/08 05:19:45;;;;;;;131.93;50.22;;;-1.50;99.90;;;;;;5115337;28;20048;-80
2024/03/08 05:22:32;;;;;;;155.27;58.15;;;-1.50;99.90;;;;;;5108891;28;20456;-80
2024/03/08 05:25:22;;;;;;;140.25;51.35;;;-1.40;99.90;;;;;;5089145;28;20060;-83
2024/03/08 05:28:09;;;;;;;141.82;52.90;;;-1.40;99.90;;;;;;5095587;28;20044;-84
2024/03/08 05:30:57;;;;;;;139.90;53.40;;;-1.40;99.90;;;;;;5101908;27;20039;-78
2024/03/08 05:33:46;;;;;;;139.00;53.35;;;-1.50;99.90;;;;;;5104259;27;20123;-80
2024/03/08 05:36:33;;;;;;;136.63;50.42;;;-1.60;99.90;;;;;;5116408;27;20509;-78
2024/03/08 05:39:21;;;;;;;134.93;52.20;;;-1.70;99.90;;;;;;5113241;27;20269;-76
2024/03/08 05:42:09;;;;;;;143.05;51.38;;;-1.70;99.90;;;;;;5124445;27;20043;-79
2024/03/08 05:44:57;;;;;;;128.40;50.33;;;-1.70;99.90;;;;;;5100840;28;20055;-78
2024/03/08 05:47:45;;;;;;;136.90;49.50;;;-1.80;99.90;;;;;;5100260;28;20077;-78
2024/03/08 05:50:33;;;;;;;129.88;50.13;;;-1.80;99.90;;;;;;5120687;27;20061;-79
2024/03/08 05:53:21;;;;;;;130.35;49.95;;;-1.90;99.90;;;;;;5119120;27;20047;-79
2024/03/08 05:56:09;;;;;;;132.88;49.92;;;-1.90;99.90;;;;;;5123309;27;20087;-78
2024/03/08 05:58:58;;;;;;;133.02;50.60;;;-1.90;99.90;;;;;;5108820;28;20055;-77
2024/03/08 06:01:46;;;;;;;126.15;49.80;;;-1.90;99.90;;;;;;5130360;27;20073;-77
2024/03/08 06:04:37;;;;;;;127.65;51.65;;;-1.70;99.90;;;;;;5102489;28;20120;-79
2024/03/08 06:07:30;;;;;;;126.57;49.42;;;-1.60;99.90;;;;;;5105069;27;20065;-79
2024/03/08 06:10:18;;;;;;;133.10;51.17;;;-1.50;99.90;;;;;;5095012;27;20040;-81
2024/03/08 06:13:06;;;;;;;129.98;50.65;;;-1.40;99.90;;;;;;5084138;27;20047;-76
2024/03/08 06:15:55;;;;;;;134.73;52.47;;;-1.30;99.90;;;;;;5088628;28;20053;-79
2024/03/08 06:18:44;;;;;;;141.10;52.90;;;-1.20;99.90;;;;;;5072998;28;21744;-79
2024/03/08 06:21:32;;;;;;;142.15;53.50;;;-1.10;99.90;;;;;;5104294;27;20048;-79
2024/03/08 06:24:19;;;;;;;143.85;53.53;;;-0.90;99.90;;;;;;5107947;27;20123;-79
2024/03/08 06:27:09;;;;;;;155.60;54.13;;;-0.80;99.90;;;;;;5088751;27;20044;-76
2024/03/08 06:29:57;;;;;;;148.82;54.60;;;-0.70;99.90;;;;;;5098780;27;20425;-78
2024/03/08 06:32:44;;;;;;;141.02;54.28;;;-0.60;99.90;;;;;;5099465;27;20051;-79
2024/03/08 06:35:32;;;;;;;145.45;56.28;;;-0.50;99.90;;;;;;5097321;27;20051;-79
2024/03/08 06:38:20;;;;;;;136.75;53.33;;;-0.40;99.90;;;;;;5090317;27;20039;-78
2024/03/08 06:41:14;;;;;;;144.63;53.88;;;-0.30;99.90;;;;;;5097368;27;20070;-78
2024/03/08 06:44:03;;;;;;;140.38;54.85;;;-0.20;99.90;;;;;;5098688;27;20059;-79
2024/03/08 06:46:50;;;;;;;156.40;58.35;;;-0.20;99.90;;;;;;5099970;27;20040;-78
2024/03/08 06:49:38;;;;;;;146.07;54.28;;;-0.10;99.90;;;;;;5096459;27;20040;-78
2024/03/08 06:52:26;;;;;;;142.23;55.83;;;-0.10;99.90;;;;;;5095927;27;20184;-78
2024/03/08 06:55:16;;;;;;;151.48;54.20;;;0.00;99.90;;;;;;5091709;28;20055;-79
2024/03/08 06:58:03;;;;;;;144.07;53.25;;;0.00;99.90;;;;;;5095917;28;20043;-79
2024/03/08 07:00:53;;;;;;;150.70;54.20;;;0.10;99.90;;;;;;5099059;27;20075;-79
2024/03/08 07:03:47;;;;;;;142.32;53.00;;;0.10;99.90;;;;;;5107290;27;20523;-80
2024/03/08 07:06:36;;;;;;;141.98;53.13;;;0.20;99.90;;;;;;5094501;27;20077;-80
2024/03/08 07:09:24;;;;;;;142.60;54.30;;;0.20;99.90;;;;;;5083968;28;20027;-77
2024/03/08 07:12:13;;;;;;;140.00;53.13;;;0.10;99.90;;;;;;5107905;27;20572;-78
2024/03/08 07:15:01;;;;;;;142.85;52.63;;;0.10;99.90;;;;;;5089680;27;20041;-76
2024/03/08 07:17:52;;;;;;;142.10;54.33;;;0.20;99.90;;;;;;5093853;27;20051;-77
2024/03/08 07:20:41;;;;;;;134.07;53.53;;;0.20;99.90;;;;;;5098451;27;20039;-80
2024/03/08 07:26:39;;;;;;;134.45;49.95;;;0.30;99.90;;;;;;5094920;27;20044;-76
2024/03/08 07:29:28;;;;;;;139.85;51.75;;;0.40;99.90;;;;;;5100522;27;20628;-78
2024/03/08 07:32:20;;;;;;;128.45;51.50;;;0.50;99.90;;;;;;5095962;27;20059;-79
2024/03/08 07:35:08;;;;;;;130.85;51.85;;;0.50;99.90;;;;;;5112196;28;20116;-75
2024/03/08 07:37:59;;;;;;;115.95;47.40;;;0.50;99.90;;;;;;5115262;27;20047;-76
2024/03/08 07:40:47;;;;;;;123.45;49.10;;;0.60;99.90;;;;;;5099710;27;20402;-77
2024/03/08 07:43:35;;;;;;;125.10;51.15;;;0.80;99.90;;;;;;5084495;28;20507;-78
2024/03/08 07:46:23;;;;;;;125.25;49.58;;;0.80;99.90;;;;;;5095661;27;20039;-79
2024/03/08 07:49:11;;;;;;;115.30;47.40;;;0.90;99.90;;;;;;5091048;27;20040;-79
2024/03/08 07:51:59;;;;;;;123.97;52.13;;;1.00;99.90;;;;;;5092450;28;20036;-80
2024/03/08 07:54:47;;;;;;;120.45;49.88;;;1.00;99.90;;;;;;5096748;28;20134;-80
2024/03/08 07:57:35;;;;;;;118.22;50.28;;;0.90;99.90;;;;;;5102793;27;20050;-78
2024/03/08 08:00:24;;;;;;;108.97;49.22;;;1.00;99.90;;;;;;5085184;28;20694;-79
2024/03/08 08:03:15;;;;;;;99.55;44.42;;;1.10;99.90;;;;;;5085154;28;20044;-78
2024/03/08 08:06:07;;;;;;;106.40;47.88;;;1.30;99.90;;;;;;5083413;28;20097;-78
2024/03/08 08:08:57;;;;;;;99.28;44.05;;;1.40;99.90;;;;;;5096127;27;20127;-78
2024/03/08 08:11:45;;;;;;;98.13;44.20;;;1.60;99.90;;;;;;5100125;27;20046;-77
2024/03/08 08:14:32;;;;;;;91.43;43.75;;;1.70;99.90;;;;;;5079642;28;20040;-77
2024/03/08 08:17:22;;;;;;;83.95;41.10;;;1.80;99.90;;;;;;5119527;28;20047;-76
2024/03/08 08:20:11;;;;;;;86.72;41.00;;;1.80;99.90;;;;;;5119980;28;20024;-77
2024/03/08 08:22:59;;;;;;;76.82;39.63;;;1.90;99.90;;;;;;5104197;28;20111;-77
2024/03/08 08:25:49;;;;;;;68.85;37.05;;;2.00;99.90;;;;;;5098066;28;20185;-78
2024/03/08 08:28:40;;;;;;;67.03;34.38;;;2.10;99.90;;;;;;5091055;28;20559;-78
2024/03/08 08:31:28;;;;;;;69.85;35.80;;;2.10;99.90;;;;;;5079774;28;20059;-79
2024/03/08 08:34:19;;;;;;;65.10;33.40;;;2.10;99.90;;;;;;5097226;28;20044;-77
2024/03/08 08:37:09;;;;;;;59.35;32.53;;;2.20;99.90;;;;;;5096274;28;20149;-79
2024/03/08 08:40:05;;;;;;;60.47;31.30;;;2.20;71.40;;;;;;5095113;28;20146;-78
2024/03/08 08:42:52;;;;;;;58.20;31.77;;;2.20;11.40;;;;;;5081275;28;20044;-78
2024/03/08 08:45:40;;;;;;;51.97;29.10;;;2.40;1.00;;;;;;5094508;28;20051;-77
2024/03/08 08:48:30;;;;;;;51.35;28.73;;;2.50;1.00;;;;;;5075053;28;20482;-77
2024/03/08 08:51:18;;;;;;;49.38;28.70;;;2.60;1.00;;;;;;5101431;28;20064;-77
2024/03/08 08:54:06;;;;;;;51.33;28.55;;;2.60;99.90;;;;;;5096480;28;20055;-78
2024/03/08 08:57:02;;;;;;;52.67;29.02;;;2.70;99.90;;;;;;5078941;28;20046;-76
2024/03/08 08:59:50;;;;;;;46.95;26.75;;;2.80;18.70;;;;;;5097832;27;20044;-78
2024/03/08 09:02:37;;;;;;;46.38;26.83;;;2.80;99.90;;;;;;5101142;28;20059;-79
2024/03/08 09:05:28;;;;;;;46.63;26.02;;;2.70;99.90;;;;;;5081190;28;20035;-78
2024/03/08 09:08:17;;;;;;;48.97;27.25;;;2.70;99.90;;;;;;5092249;28;20138;-77
2024/03/08 09:11:05;;;;;;;43.70;25.10;;;2.90;1.00;;;;;;5094601;27;20058;-79
2024/03/08 09:13:53;;;;;;;45.92;26.58;;;3.00;99.90;;;;;;5092407;28;20059;-78
2024/03/08 09:16:43;;;;;;;42.00;25.10;;;3.00;1.00;;;;;;5079282;27;20057;-79
2024/03/08 09:19:30;;;;;;;44.25;24.88;;;3.10;99.90;;;;;;5083681;28;20039;-78
2024/03/08 09:22:18;;;;;;;44.50;24.42;;;3.10;1.00;;;;;;5084268;28;20549;-77
2024/03/08 09:25:07;;;;;;;45.38;25.75;;;3.10;99.90;;;;;;5093248;28;20032;-79
2024/03/08 09:27:54;;;;;;;43.55;25.08;;;3.00;1.00;;;;;;5075792;28;20063;-79
2024/03/08 09:30:42;;;;;;;43.63;25.50;;;2.90;99.90;;;;;;5096005;27;20058;-77
2024/03/08 09:33:43;;;;;;;47.47;25.67;;;3.10;99.90;;;;;;5072460;27;20059;-78
2024/03/08 09:36:32;;;;;;;44.33;24.52;;;3.20;99.90;;;;;;5098772;27;20046;-78
2024/03/08 09:39:21;;;;;;;39.47;22.90;;;3.20;1.00;;;;;;5104552;27;20047;-78
2024/03/08 09:42:15;;;;;;;39.08;23.63;;;3.10;99.90;;;;;;5099594;27;20072;-78
2024/03/08 09:45:15;;;;;;;40.63;23.63;;;3.30;99.90;;;;;;5102261;27;20040;-78
2024/03/08 09:48:06;;;;;;;42.92;24.63;;;3.40;99.90;;;;;;5108421;27;20039;-77
2024/03/08 09:50:57;;;;;;;43.88;24.92;;;3.60;44.60;;;;;;5080161;27;20560;-79
2024/03/08 09:53:47;;;;;;;37.45;21.85;;;3.50;1.00;;;;;;5100452;27;20040;-80
2024/03/08 09:56:36;;;;;;;39.17;24.38;;;3.70;1.00;;;;;;5069768;27;20482;-80
2024/03/08 10:02:18;;;;;;;38.35;23.17;;;3.80;99.90;;;;;;5100825;27;20044;-78
2024/03/08 10:05:06;;;;;;;40.08;22.20;;;3.70;99.90;;;;;;5080564;28;20048;-79
2024/03/08 10:07:54;;;;;;;40.42;22.92;;;3.70;99.90;;;;;;5097351;27;20170;-79
2024/03/08 10:10:42;;;;;;;36.40;22.02;;;3.80;94.20;;;;;;5081492;27;20544;-78
2024/03/08 10:13:32;;;;;;;38.30;23.15;;;3.90;35.30;;;;;;5098494;27;20919;-77
2024/03/08 10:16:21;;;;;;;36.97;22.40;;;4.20;4.70;;;;;;5093244;27;20044;-78
2024/03/08 10:19:09;;;;;;;38.22;21.38;;;4.20;1.00;;;;;;5100494;27;20605;-77
2024/03/08 10:21:58;;;;;;;36.88;22.40;;;4.30;1.00;;;;;;5103883;27;20182;-79
2024/03/08 10:24:48;;;;;;;34.40;20.83;;;4.20;1.00;;;;;;5103557;27;20046;-81
2024/03/08 10:27:36;;;;;;;37.05;21.83;;;4.20;99.90;;;;;;5096474;28;20036;-79
2024/03/08 10:30:25;;;;;;;39.70;22.52;;;4.10;99.90;;;;;;5081332;28;20558;-78
2024/03/08 10:33:14;;;;;;;37.70;22.10;;;4.10;99.90;;;;;;5099767;28;20044;-79
2024/03/08 10:36:03;;;;;;;42.97;23.55;;;4.10;99.90;;;;;;5093444;27;20035;-78
2024/03/08 10:38:53;;;;;;;41.13;22.52;;;4.20;99.90;;;;;;5091870;27;20117;-79
2024/03/08 10:41:46;;;;;;;48.15;26.15;;;4.40;99.90;;;;;;5091963;27;20093;-80
2024/03/08 10:44:59;;;;;;;48.85;24.58;;;4.50;99.90;;;;;;5092333;27;20055;-80
2024/03/08 10:47:50;;;;;;;51.03;26.42;;;4.60;99.90;;;;;;5096411;27;20499;-79
2024/03/08 10:50:39;;;;;;;38.88;23.02;;;4.90;99.90;;;;;;5089019;28;20130;-79
2024/03/08 10:53:29;;;;;;;31.70;19.83;;;5.20;99.90;;;;;;5091222;27;20069;-77
2024/03/08 10:56:18;;;;;;;41.35;22.73;;;5.20;99.90;;;;;;5100159;27;20047;-77
2024/03/08 10:59:08;;;;;;;34.45;20.85;;;5.50;99.90;;;;;;5094377;27;20136;-77
2024/03/08 11:01:57;;;;;;;32.97;20.15;;;5.90;99.90;;;;;;5101903;27;20504;-78
2024/03/08 11:04:49;;;;;;;33.55;19.75;;;6.40;98.80;;;;;;5099509;27;20039;-78
2024/03/08 11:07:43;;;;;;;32.55;18.92;;;6.60;35.20;;;;;;5101336;27;20055;-79
2024/03/08 11:10:31;;;;;;;30.80;18.75;;;6.40;1.00;;;;;;5108841;28;20054;-78
2024/03/08 11:13:43;;;;;;;29.10;18.63;;;6.40;1.00;;;;;;5116974;27;20044;-80
2024/03/08 11:16:31;;;;;;;30.00;18.95;;;6.40;1.00;;;;;;5097396;27;20047;-79
2024/03/08 11:19:21;;;;;;;27.73;17.40;;;6.50;1.00;;;;;;5115203;28;20100;-78
2024/03/08 11:22:23;;;;;;;29.33;18.63;;;6.60;1.00;;;;;;5110985;27;20060;-76
2024/03/08 11:25:33;;;;;;;30.10;19.23;;;6.30;1.00;;;;;;5117112;27;20035;-76
2024/03/08 11:28:26;;;;;;;28.85;17.38;;;6.00;1.00;;;;;;5116056;28;20047;-77
2024/03/08 11:31:24;;;;;;;30.48;17.38;;;7.40;1.00;;;;;;5113619;27;20475;-77
2024/03/08 11:34:18;;;;;;;22.73;14.65;;;9.50;1.00;;;;;;5111678;27;20088;-77
2024/03/08 11:37:15;;;;;;;23.42;14.70;;;11.00;99.90;;;;;;5106908;28;20047;-78
2024/03/08 11:40:15;;;;;;;23.52;15.75;;;12.00;99.90;;;;;;5099216;27;20570;-77
2024/03/08 11:43:06;;;;;;;23.92;16.00;;;12.50;99.90;;;;;;5096939;28;20137;-77
2024/03/08 11:46:08;;;;;;;20.88;15.60;;;12.40;99.90;;;;;;5091601;27;20048;-77
2024/03/08 11:48:56;;;;;;;22.90;15.52;;;13.00;99.90;;;;;;5092791;27;20040;-79
2024/03/08 11:51:44;;;;;;;21.63;15.48;;;12.80;99.90;;;;;;5111452;28;20023;-76
2024/03/08 11:54:35;;;;;;;22.13;15.60;;;13.60;99.90;;;;;;5114387;28;20058;-76
2024/03/08 11:57:23;;;;;;;22.35;15.40;;;13.70;99.90;;;;;;5112800;28;20048;-76
2024/03/08 12:00:25;;;;;;;22.25;15.45;;;13.40;99.90;;;;;;5091426;28;20048;-79
2024/03/08 12:03:14;;;;;;;;;;;13.60;99.90;;;;;;5081052;28;20059;-79
2024/03/08 12:06:03;;;;;;;23.63;14.98;;;12.60;99.90;;;;;;5102463;27;19975;-77
2024/03/08 12:08:51;;;;;;;25.73;16.60;;;12.30;99.90;;;;;;5079729;28;20036;-80
2024/03/08 12:11:40;;;;;;;22.02;15.32;;;11.90;99.90;;;;;;5087503;28;20048;-80
2024/03/08 12:14:28;;;;;;;20.90;14.32;;;13.20;99.90;;;;;;5098546;27;20048;-78
2024/03/08 12:17:16;;;;;;;18.85;14.00;;;14.70;99.90;;;;;;5091887;28;20136;-81
2024/03/08 12:20:29;;;;;;;20.40;14.80;;;15.00;99.90;;;;;;5091950;28;20058;-82
2024/03/08 12:23:18;;;;;;;21.25;15.07;;;14.10;99.70;;;;;;5079260;28;20047;-80
2024/03/08 12:26:25;;;;;;;20.58;14.65;;;13.60;97.40;;;;;;5099128;28;20122;-80
2024/03/08 12:29:26;;;;;;;25.17;15.02;;;13.80;91.70;;;;;;5098451;28;20040;-78
2024/03/08 12:32:15;;;;;;;21.65;15.00;;;13.10;84.20;;;;;;5097249;28;20055;-78
2024/03/08 12:35:04;;;;;;;22.77;15.20;;;13.20;79.70;;;;;;5102608;27;20039;-79
2024/03/08 12:37:56;;;;;;;22.77;15.15;;;14.30;87.50;;;;;;5098791;27;20052;-78
2024/03/08 12:40:47;;;;;;;22.15;14.68;;;14.50;72.50;;;;;;5095861;27;20752;-79
2024/03/08 12:43:35;;;;;;;21.38;14.85;;;15.10;55.70;;;;;;5097596;28;20377;-79
2024/03/08 12:46:26;;;;;;;22.17;13.88;;;15.30;52.70;;;;;;5096500;27;20330;-81
2024/03/08 12:49:17;;;;;;;19.55;14.50;;;14.90;47.20;;;;;;5095582;27;20473;-77
2024/03/08 12:52:10;;;;;;;23.42;15.57;;;15.80;46.00;;;;;;5100576;28;20040;-80
2024/03/08 12:55:02;;;;;;;21.02;15.15;;;16.20;30.20;;;;;;5106857;28;20048;-78
2024/03/08 12:57:53;;;;;;;21.02;15.57;;;15.80;29.50;;;;;;5098873;27;20048;-78
2024/03/08 13:00:43;;;;;;;25.10;16.80;;;16.30;31.30;;;;;;5106300;27;20131;-79
2024/03/08 13:03:31;;;;;;;22.92;14.73;;;16.00;23.40;;;;;;5106015;27;20042;-79
2024/03/08 13:06:24;;;;;;;21.67;15.05;;;16.10;21.30;;;;;;5085215;27;20040;-78
2024/03/08 13:09:12;;;;;;;18.13;13.45;;;16.90;17.70;;;;;;5106847;27;20771;-80
2024/03/08 13:12:00;;;;;;;16.88;13.85;;;17.80;13.40;;;;;;5092672;28;20099;-79
2024/03/08 13:14:49;;;;;;;22.20;13.90;;;17.90;6.50;;;;;;5098456;27;20562;-79
2024/03/08 13:17:39;;;;;;;22.52;13.63;;;18.00;5.60;;;;;;5102488;28;20060;-80
2024/03/08 13:20:28;;;;;;;19.05;13.88;;;18.10;3.50;;;;;;5081784;27;20467;-79
2024/03/08 13:23:26;;;;;;;19.27;14.15;;;17.50;1.00;;;;;;5102993;27;20051;-79
2024/03/08 13:26:24;;;;;;;19.55;14.25;;;17.10;1.00;;;;;;5080734;28;20046;-78
2024/03/08 13:29:14;;;;;;;22.15;14.77;;;16.30;1.00;;;;;;5097406;27;20093;-79
2024/03/08 13:32:03;;;;;;;18.38;14.70;;;16.90;1.00;;;;;;5104523;27;20040;-79
2024/03/08 13:34:53;;;;;;;21.95;16.13;;;17.00;1.00;;;;;;5084085;28;20148;-78
2024/03/08 13:37:43;;;;;;;19.83;14.63;;;16.00;1.00;;;;;;5100083;27;20059;-81
2024/03/08 13:40:31;;;;;;;20.92;15.05;;;16.10;1.00;;;;;;5103743;27;20116;-80
2024/03/08 13:43:19;;;;;;;24.13;17.30;;;16.00;1.00;;;;;;5102663;27;20044;-78
2024/03/08 13:46:07;;;;;;;28.98;16.38;;;15.20;1.00;;;;;;5108173;28;20036;-80
2024/03/08 13:48:54;;;;;;;23.25;14.60;;;15.50;1.00;;;;;;5105464;27;20015;-78
2024/03/08 13:51:42;;;;;;;20.63;14.65;;;15.30;1.00;;;;;;5125974;27;20084;-79
2024/03/08 13:54:31;;;;;;;21.60;15.93;;;16.10;1.00;;;;;;5123186;27;20047;-81
2024/03/08 13:57:18;;;;;;;21.67;15.80;;;16.30;1.00;;;;;;5081524;28;20122;-77
2024/03/08 14:00:06;;;;;;;21.58;15.60;;;16.10;1.00;;;;;;5108458;27;20069;-76
2024/03/08 14:02:54;;;;;;;22.33;15.65;;;15.90;1.00;;;;;;5121944;27;20024;-75
2024/03/08 14:05:42;;;;;;;24.25;16.17;;;14.90;1.00;;;;;;5101850;27;20184;-80
2024/03/08 14:08:33;;;;;;;24.20;16.65;;;14.40;1.00;;;;;;5101979;27;20039;-78
2024/03/08 14:11:20;;;;;;;23.08;16.15;;;14.30;1.00;;;;;;5095541;28;20105;-79
2024/03/08 14:14:08;;;;;;;29.00;17.20;;;15.10;1.00;;;;;;5103190;28;20039;-78
2024/03/08 14:16:58;;;;;;;25.60;16.42;;;14.80;1.00;;;;;;5098081;27;20043;-80
2024/03/08 14:19:46;;;;;;;24.55;16.75;;;15.30;1.00;;;;;;5079388;28;20051;-79
2024/03/08 14:22:33;;;;;;;27.95;16.55;;;15.20;1.00;;;;;;5084569;27;20040;-79
2024/03/08 14:25:26;;;;;;;35.95;16.50;;;14.80;1.00;;;;;;5089860;27;20650;-79
2024/03/08 14:28:19;;;;;;;23.08;15.95;;;15.50;1.00;;;;;;5089325;28;20410;-79